Terminal Aerodrome Forecast
Issued by NWS Mobile, AL

Home | Current Version | Previous Version | Text Only | Print | Product List | Glossary On
Versions: 1 2 3 4 5 6 7 8 9 10 11 12 13 14 15
000
FTUS44 KMOB 160535
TAFPNS
TAF
KPNS 160535Z 1606/1706 VRB03KT P6SM SKC
     FM161500 34007KT P6SM OVC050
     FM162300 34015G23KT P6SM -RA OVC025=

USA.gov is the U.S. government's official web portal to all federal, state and local government web resources and services.